createdAt,value
2022-12-17T00:00:08.874Z,60.81
2022-12-17T00:02:36.397Z,61.65
2022-12-17T00:05:02.995Z,61.42
2022-12-17T00:07:29.375Z,61.89
2022-12-17T00:09:55.888Z,60.71
2022-12-17T00:12:22.580Z,58.96
2022-12-17T00:14:49.357Z,58.31
2022-12-17T00:17:15.792Z,59.83
2022-12-17T00:19:42.215Z,60.03
2022-12-17T00:22:11.583Z,59.90
2022-12-17T00:24:37.958Z,60.27
2022-12-17T00:27:04.437Z,59.89
2022-12-17T00:29:30.907Z,61.17
2022-12-17T00:31:57.297Z,59.99
2022-12-17T00:34:23.679Z,59.77
2022-12-17T00:36:50.075Z,60.54
2022-12-17T00:39:16.462Z,61.61
2022-12-17T00:41:42.865Z,60.48
2022-12-17T00:44:09.297Z,60.91
2022-12-17T00:46:36.189Z,60.42
2022-12-17T00:49:02.602Z,61.85
2022-12-17T00:51:31.188Z,60.88
2022-12-17T00:53:58.469Z,61.60
2022-12-17T00:56:24.887Z,61.76
2022-12-17T00:58:51.281Z,61.19
2022-12-17T01:01:18.509Z,60.87
2022-12-17T01:03:44.968Z,60.59
2022-12-17T01:06:11.322Z,60.30
2022-12-17T01:08:37.774Z,61.07
2022-12-17T01:11:04.138Z,60.97
2022-12-17T01:13:32.598Z,60.09
2022-12-17T01:15:59.103Z,61.08
2022-12-17T01:18:28.330Z,60.11
2022-12-17T01:20:54.684Z,59.80
2022-12-17T01:23:22.756Z,59.70
2022-12-17T01:25:49.190Z,59.28
2022-12-17T01:28:15.565Z,59.74
2022-12-17T01:30:42.000Z,59.12
2022-12-17T01:33:08.471Z,60.28
2022-12-17T01:35:36.773Z,59.95
2022-12-17T01:38:03.128Z,59.78
2022-12-17T01:40:29.563Z,60.35
2022-12-17T01:42:57.006Z,59.50
2022-12-17T01:45:23.440Z,60.16
2022-12-17T01:47:52.873Z,60.13
2022-12-17T01:50:26.969Z,60.91
2022-12-17T01:52:53.526Z,61.59
2022-12-17T01:55:19.916Z,61.47
2022-12-17T01:57:46.289Z,60.87
2022-12-17T02:00:12.678Z,60.43
2022-12-17T02:02:39.196Z,60.33
2022-12-17T02:05:05.771Z,60.56
2022-12-17T02:07:32.299Z,59.83
2022-12-17T02:09:58.765Z,60.54
2022-12-17T02:12:25.135Z,60.19
2022-12-17T02:14:53.168Z,60.99
2022-12-17T02:17:19.514Z,61.17
2022-12-17T02:19:45.887Z,60.70
2022-12-17T02:22:15.204Z,60.39
2022-12-17T02:24:43.804Z,58.91
2022-12-17T02:27:10.235Z,59.31
2022-12-17T02:29:36.612Z,59.87
2022-12-17T02:32:03.027Z,60.52
2022-12-17T02:34:29.459Z,59.37
2022-12-17T02:36:58.955Z,59.70
2022-12-17T02:39:25.295Z,59.88
2022-12-17T02:41:51.650Z,58.95
2022-12-17T02:44:18.013Z,59.06
2022-12-17T02:46:44.411Z,58.88
2022-12-17T02:49:10.782Z,59.68
2022-12-17T02:51:37.170Z,59.88
2022-12-17T02:54:03.554Z,60.40
2022-12-17T02:56:30.012Z,59.71
2022-12-17T02:59:00.513Z,59.30
2022-12-17T03:01:27.046Z,57.93
2022-12-17T03:03:56.353Z,58.04
2022-12-17T03:06:22.736Z,59.28
2022-12-17T03:08:49.152Z,58.73
2022-12-17T03:11:15.591Z,58.11
2022-12-17T03:13:42.028Z,59.43
2022-12-17T03:16:08.544Z,60.03
2022-12-17T03:18:34.905Z,59.59
2022-12-17T03:21:01.312Z,59.86
2022-12-17T03:23:27.687Z,59.26
2022-12-17T03:25:54.146Z,60.11
2022-12-17T03:28:20.516Z,59.45
2022-12-17T03:30:49.062Z,58.83
2022-12-17T03:33:15.633Z,60.17
2022-12-17T03:35:42.270Z,59.35
2022-12-17T03:38:08.607Z,59.33
2022-12-17T03:40:35.211Z,59.22
2022-12-17T03:43:01.563Z,59.93
2022-12-17T03:45:27.907Z,60.46
2022-12-17T03:47:54.346Z,60.30
2022-12-17T03:50:20.736Z,60.71
2022-12-17T03:52:47.111Z,61.44
2022-12-17T03:55:15.920Z,61.84
2022-12-17T03:57:42.243Z,61.61
2022-12-17T04:00:08.870Z,60.60
2022-12-17T04:02:35.365Z,61.32
2022-12-17T04:05:01.865Z,60.79
2022-12-17T04:07:28.309Z,59.82
2022-12-17T04:09:54.727Z,59.65
2022-12-17T04:12:21.153Z,59.53
2022-12-17T04:14:47.505Z,59.88
2022-12-17T04:17:13.887Z,60.08
2022-12-17T04:19:40.227Z,59.78
2022-12-17T04:22:07.054Z,60.37
2022-12-17T04:24:33.491Z,60.87
2022-12-17T04:26:59.906Z,60.87
2022-12-17T04:29:26.284Z,60.43
2022-12-17T04:31:52.720Z,60.37
2022-12-17T04:34:19.237Z,59.02
2022-12-17T04:36:45.696Z,58.14
2022-12-17T04:39:12.229Z,58.09
2022-12-17T04:41:38.797Z,57.49
2022-12-17T04:44:05.284Z,57.50
2022-12-17T04:46:31.747Z,58.06
2022-12-17T04:48:58.197Z,57.80
2022-12-17T04:51:24.648Z,59.17
2022-12-17T04:53:51.007Z,59.08
2022-12-17T04:56:17.354Z,58.99
2022-12-17T04:58:43.762Z,59.54
2022-12-17T05:01:10.186Z,59.16
2022-12-17T05:03:37.089Z,60.44
2022-12-17T05:06:03.816Z,61.20
2022-12-17T05:08:30.214Z,60.29
2022-12-17T05:10:56.651Z,59.90
2022-12-17T05:13:23.042Z,59.40
2022-12-17T05:15:53.058Z,60.16
2022-12-17T05:18:19.992Z,60.50
2022-12-17T05:20:46.380Z,60.55
2022-12-17T05:23:12.813Z,60.18
2022-12-17T05:25:39.234Z,60.17
2022-12-17T05:28:05.595Z,60.10
2022-12-17T05:30:31.997Z,60.21
2022-12-17T05:32:58.344Z,59.99
2022-12-17T05:35:24.725Z,60.08
2022-12-17T05:37:51.127Z,60.34
2022-12-17T05:40:17.524Z,59.10
2022-12-17T05:42:44.002Z,60.38
2022-12-17T05:45:10.363Z,60.92
2022-12-17T05:47:36.729Z,60.94
2022-12-17T05:50:03.313Z,60.53
2022-12-17T05:52:29.650Z,60.35
2022-12-17T05:54:56.179Z,60.86
2022-12-17T05:57:22.566Z,60.80
2022-12-17T05:59:49.012Z,60.82
2022-12-17T06:02:15.504Z,60.83
2022-12-17T06:04:42.007Z,60.79
2022-12-17T06:07:08.397Z,61.11
2022-12-17T06:09:34.737Z,59.75
2022-12-17T06:12:02.958Z,59.73
2022-12-17T06:14:29.552Z,59.82
2022-12-17T06:16:56.007Z,60.44
2022-12-17T06:19:22.449Z,59.39
2022-12-17T06:21:48.849Z,59.79
2022-12-17T06:24:15.297Z,60.56
2022-12-17T06:26:41.722Z,59.97
2022-12-17T06:29:08.179Z,60.92
2022-12-17T06:31:34.633Z,60.29
2022-12-17T06:34:01.119Z,59.57
2022-12-17T06:36:27.480Z,60.17
2022-12-17T06:38:53.864Z,60.91
2022-12-17T06:41:20.259Z,61.60
2022-12-17T06:43:46.646Z,61.28
2022-12-17T06:46:13.071Z,61.20
2022-12-17T06:48:39.564Z,61.14
2022-12-17T06:51:05.991Z,61.11
2022-12-17T06:53:32.434Z,62.79
2022-12-17T06:55:58.826Z,62.31
2022-12-17T06:58:25.285Z,60.83
2022-12-17T07:00:51.773Z,61.79
2022-12-17T07:03:18.254Z,62.68
2022-12-17T07:05:44.642Z,62.54
2022-12-17T07:08:14.883Z,61.30
2022-12-17T07:10:41.341Z,60.88
2022-12-17T07:13:08.777Z,61.75
2022-12-17T07:18:15.476Z,62.63
2022-12-17T07:20:44.359Z,62.75
2022-12-17T07:23:11.078Z,63.38
2022-12-17T07:25:45.660Z,63.12
2022-12-17T07:28:15.431Z,63.82
2022-12-17T07:30:41.901Z,63.48
2022-12-17T07:33:08.310Z,63.67
2022-12-17T07:35:34.769Z,63.90
2022-12-17T07:38:01.654Z,63.45
2022-12-17T07:40:28.088Z,62.93
2022-12-17T07:42:54.913Z,63.25
2022-12-17T07:45:21.507Z,63.04
2022-12-17T07:47:47.910Z,63.30
2022-12-17T07:50:14.369Z,63.05
2022-12-17T07:52:40.790Z,62.25
2022-12-17T07:55:07.244Z,62.81
2022-12-17T07:57:33.696Z,63.35
2022-12-17T08:00:00.102Z,63.29
2022-12-17T08:02:26.778Z,63.02
2022-12-17T08:04:53.444Z,62.49
2022-12-17T08:07:19.976Z,62.10
2022-12-17T08:09:46.512Z,61.91
2022-12-17T08:15:03.818Z,61.96
2022-12-17T08:17:30.855Z,61.80
2022-12-17T08:19:57.409Z,61.71
2022-12-17T08:22:23.894Z,62.11
2022-12-17T08:24:50.317Z,61.61
2022-12-17T08:27:16.759Z,61.56
2022-12-17T08:29:45.482Z,61.20
2022-12-17T08:32:19.724Z,60.76
2022-12-17T08:34:46.352Z,61.06
2022-12-17T08:37:13.720Z,60.58
2022-12-17T08:39:40.318Z,60.69
2022-12-17T08:42:08.771Z,61.25
2022-12-17T08:44:35.489Z,61.40
2022-12-17T08:47:01.868Z,60.92
2022-12-17T08:49:29.169Z,60.77
2022-12-17T08:51:55.586Z,61.16
2022-12-17T08:54:21.973Z,61.16
2022-12-17T08:56:48.362Z,60.83
2022-12-17T08:59:16.911Z,61.12
2022-12-17T09:01:45.033Z,60.54
2022-12-17T09:04:11.548Z,60.71
2022-12-17T09:06:39.422Z,61.67
2022-12-17T09:09:06.075Z,61.66
2022-12-17T09:11:35.194Z,61.56
2022-12-17T09:14:01.992Z,62.15
2022-12-17T09:16:28.834Z,61.73
2022-12-17T09:18:57.276Z,61.28
2022-12-17T09:21:23.752Z,61.30
2022-12-17T09:23:50.155Z,61.92
2022-12-17T09:26:17.662Z,62.08
2022-12-17T09:28:46.898Z,62.36
2022-12-17T09:31:14.301Z,62.73
2022-12-17T09:33:41.021Z,61.96
2022-12-17T09:36:07.372Z,62.14
2022-12-17T09:38:36.759Z,61.76
2022-12-17T09:41:03.095Z,61.93
2022-12-17T09:43:46.022Z,61.16
2022-12-17T09:46:14.354Z,61.26
2022-12-17T09:48:41.355Z,60.43
2022-12-17T09:51:11.436Z,60.55
2022-12-17T09:53:41.251Z,60.79
2022-12-17T09:56:07.951Z,61.13
2022-12-17T09:58:34.465Z,60.84
2022-12-17T10:01:01.294Z,60.78
2022-12-17T10:03:28.891Z,61.21
2022-12-17T10:05:57.662Z,61.41
2022-12-17T10:08:26.848Z,60.63
2022-12-17T10:10:53.391Z,60.77
2022-12-17T10:13:19.830Z,60.61
2022-12-17T10:15:46.286Z,60.49
2022-12-17T10:18:12.789Z,60.78
2022-12-17T10:20:39.144Z,60.26
2022-12-17T10:23:05.575Z,60.09
2022-12-17T10:25:32.087Z,60.63
2022-12-17T10:27:58.642Z,60.62
2022-12-17T10:30:25.083Z,61.02
2022-12-17T10:32:51.498Z,60.28
2022-12-17T10:35:17.923Z,59.70
2022-12-17T10:37:44.313Z,60.81
2022-12-17T10:40:11.815Z,61.35
2022-12-17T10:42:41.881Z,61.78
2022-12-17T10:45:08.562Z,60.94
2022-12-17T10:47:37.624Z,61.23
2022-12-17T10:50:04.036Z,60.76
2022-12-17T10:52:30.783Z,60.08
2022-12-17T10:54:57.228Z,60.26
2022-12-17T10:57:23.624Z,60.14
2022-12-17T10:59:52.588Z,60.51
2022-12-17T11:02:22.488Z,60.98
2022-12-17T11:04:52.251Z,61.24
2022-12-17T11:10:08.506Z,61.26
2022-12-17T11:12:38.806Z,61.08
2022-12-17T11:15:05.340Z,61.25
2022-12-17T11:17:31.755Z,61.40
2022-12-17T11:22:38.450Z,61.44
2022-12-17T11:25:04.960Z,61.16
2022-12-17T11:27:37.487Z,61.14
2022-12-17T11:30:03.909Z,60.61
2022-12-17T11:32:30.396Z,60.74
2022-12-17T11:34:56.835Z,60.62
2022-12-17T11:37:23.216Z,59.93
2022-12-17T11:39:50.638Z,60.52
2022-12-17T11:42:24.380Z,59.79
2022-12-17T11:44:50.919Z,60.17
2022-12-17T11:47:17.532Z,59.90
2022-12-17T11:49:44.283Z,60.64
2022-12-17T11:52:10.682Z,60.11
2022-12-17T11:54:37.080Z,60.08
2022-12-17T11:57:03.690Z,60.33
2022-12-17T11:59:30.189Z,60.13
2022-12-17T12:01:56.744Z,60.28
2022-12-17T12:04:24.595Z,59.94
2022-12-17T12:06:51.153Z,59.36
2022-12-17T12:09:17.595Z,58.97
2022-12-17T12:11:44.036Z,58.95
2022-12-17T12:14:11.760Z,60.11
2022-12-17T12:16:43.394Z,60.12
2022-12-17T12:19:10.190Z,60.10
2022-12-17T12:21:37.138Z,59.27
2022-12-17T12:24:03.676Z,59.28
2022-12-17T12:26:30.122Z,59.58
2022-12-17T12:28:56.629Z,59.89
2022-12-17T12:31:24.433Z,59.60
2022-12-17T12:33:50.873Z,59.30
2022-12-17T12:36:17.237Z,59.44
2022-12-17T12:38:46.449Z,60.14
2022-12-17T12:41:13.331Z,59.30
2022-12-17T12:43:39.721Z,58.61
2022-12-17T12:46:06.167Z,59.16
2022-12-17T12:48:32.541Z,59.45
2022-12-17T12:50:58.887Z,58.88
2022-12-17T12:53:25.332Z,59.68
2022-12-17T12:55:52.046Z,59.34
2022-12-17T12:58:18.533Z,58.44
2022-12-17T13:00:45.102Z,58.30
2022-12-17T13:03:11.696Z,59.10
2022-12-17T13:05:40.295Z,59.14
2022-12-17T13:08:06.816Z,58.77
2022-12-17T13:10:33.400Z,57.81
2022-12-17T13:12:59.808Z,59.24
2022-12-17T13:15:31.580Z,58.73
2022-12-17T13:17:59.630Z,58.75
2022-12-17T13:20:25.987Z,59.10
2022-12-17T13:22:52.497Z,59.33
2022-12-17T13:25:18.967Z,59.82
2022-12-17T13:27:49.785Z,59.48
2022-12-17T13:30:18.665Z,59.70
2022-12-17T13:32:45.080Z,59.56
2022-12-17T13:35:11.633Z,58.48
2022-12-17T13:37:38.119Z,59.08
2022-12-17T13:40:04.615Z,58.95
2022-12-17T13:42:31.447Z,59.47
2022-12-17T13:44:57.912Z,59.56
2022-12-17T13:47:24.416Z,59.76
2022-12-17T13:50:10.152Z,59.50
2022-12-17T13:52:37.568Z,59.55
2022-12-17T13:55:06.501Z,59.83
2022-12-17T13:57:32.931Z,58.60
2022-12-17T13:59:59.300Z,58.58
2022-12-17T14:02:25.785Z,58.56
2022-12-17T14:04:52.485Z,59.32
2022-12-17T14:07:19.151Z,59.97
2022-12-17T14:09:45.547Z,60.10
2022-12-17T14:12:12.010Z,59.12
2022-12-17T14:14:39.407Z,58.95
2022-12-17T14:17:08.497Z,59.62
2022-12-17T14:19:35.040Z,59.57
2022-12-17T14:22:01.424Z,59.81
2022-12-17T14:24:27.801Z,59.91
2022-12-17T14:26:56.239Z,60.16
2022-12-17T14:29:22.723Z,60.24
2022-12-17T14:31:55.211Z,59.55
2022-12-17T14:34:21.618Z,59.93
2022-12-17T14:36:48.051Z,60.42
2022-12-17T14:39:14.489Z,60.24
2022-12-17T14:41:40.875Z,59.48
2022-12-17T14:44:07.360Z,59.33
2022-12-17T14:46:34.030Z,59.39
2022-12-17T14:49:00.414Z,60.26
2022-12-17T14:51:26.881Z,59.26
2022-12-17T14:53:53.358Z,59.43
2022-12-17T14:56:21.732Z,59.20
2022-12-17T14:58:48.307Z,59.50
2022-12-17T15:01:14.973Z,59.28
2022-12-17T15:03:41.650Z,60.06
2022-12-17T15:06:08.171Z,59.43
2022-12-17T15:08:34.996Z,60.17
2022-12-17T15:11:02.074Z,60.34
2022-12-17T15:13:29.526Z,60.31
2022-12-17T15:15:55.925Z,60.01
2022-12-17T15:18:24.018Z,59.88
2022-12-17T15:20:50.579Z,60.51
2022-12-17T15:23:17.069Z,61.08
2022-12-17T15:25:46.669Z,60.77
2022-12-17T15:28:13.468Z,60.97
2022-12-17T15:30:40.132Z,59.95
2022-12-17T15:33:06.652Z,60.07
2022-12-17T15:35:33.075Z,60.02
2022-12-17T15:37:59.606Z,59.64
2022-12-17T15:40:26.046Z,59.97
2022-12-17T15:42:52.611Z,60.71
2022-12-17T15:45:21.966Z,60.25
2022-12-17T15:47:48.446Z,60.97
2022-12-17T15:50:14.871Z,60.48
2022-12-17T15:52:43.842Z,59.91
2022-12-17T15:55:10.305Z,60.62
2022-12-17T15:57:36.908Z,60.44
2022-12-17T16:00:03.340Z,61.12
2022-12-17T16:02:29.962Z,60.93
2022-12-17T16:04:56.502Z,61.35
2022-12-17T16:07:22.905Z,61.27
2022-12-17T16:09:49.294Z,60.47
2022-12-17T16:12:15.667Z,60.79
2022-12-17T16:14:42.125Z,61.04
2022-12-17T16:17:08.514Z,60.47
2022-12-17T16:19:35.003Z,60.55
2022-12-17T16:22:01.444Z,60.99
2022-12-17T16:24:27.888Z,60.63
2022-12-17T16:26:56.193Z,60.41
2022-12-17T16:29:24.646Z,61.04
2022-12-17T16:31:51.085Z,60.86
2022-12-17T16:34:17.543Z,61.02
2022-12-17T16:36:43.949Z,60.51
2022-12-17T16:39:10.308Z,61.45
2022-12-17T16:41:36.748Z,60.93
2022-12-17T16:44:03.145Z,61.50
2022-12-17T16:46:29.591Z,61.46
2022-12-17T16:48:56.057Z,60.67
2022-12-17T16:51:28.418Z,60.45
2022-12-17T16:53:55.948Z,61.00
2022-12-17T16:56:26.414Z,61.04
2022-12-17T16:58:52.949Z,60.67
2022-12-17T17:01:19.540Z,60.66
2022-12-17T17:03:46.306Z,60.69
2022-12-17T17:06:12.753Z,60.90
2022-12-17T17:08:39.641Z,60.68
2022-12-17T17:11:06.302Z,60.91
2022-12-17T17:13:32.745Z,61.54
2022-12-17T17:15:59.166Z,61.10
2022-12-17T17:18:25.621Z,60.90
2022-12-17T17:20:52.065Z,61.04
2022-12-17T17:23:18.496Z,60.43
2022-12-17T17:25:58.105Z,60.72
2022-12-17T17:28:25.104Z,61.27
2022-12-17T17:30:51.555Z,61.35
2022-12-17T17:36:03.834Z,60.75
2022-12-17T17:38:30.549Z,60.38
2022-12-17T17:40:56.924Z,60.55
2022-12-17T17:43:23.312Z,60.38
2022-12-17T17:45:49.728Z,60.61
2022-12-17T17:50:56.923Z,60.48
2022-12-17T17:53:23.340Z,61.14
2022-12-17T17:55:49.748Z,60.52
2022-12-17T17:58:16.201Z,61.08
2022-12-17T18:00:42.632Z,60.48
2022-12-17T18:03:10.167Z,60.93
2022-12-17T18:05:41.265Z,60.96
2022-12-17T18:08:11.832Z,61.14
2022-12-17T18:10:38.251Z,60.50
2022-12-17T18:13:06.858Z,61.22
2022-12-17T18:15:33.334Z,60.98
2022-12-17T18:17:59.760Z,61.53
2022-12-17T18:20:26.158Z,61.69
2022-12-17T18:22:52.709Z,61.11
2022-12-17T18:25:22.415Z,60.32
2022-12-17T18:27:48.859Z,60.55
2022-12-17T18:30:15.302Z,60.64
2022-12-17T18:32:41.814Z,60.09
2022-12-17T18:35:08.276Z,60.76
2022-12-17T18:37:34.798Z,60.76
2022-12-17T18:40:01.274Z,60.72
2022-12-17T18:42:27.818Z,61.52
2022-12-17T18:44:54.254Z,61.55
2022-12-17T18:47:20.835Z,61.44
2022-12-17T18:49:47.315Z,61.16
2022-12-17T18:52:16.986Z,61.45
2022-12-17T18:54:44.123Z,61.63
2022-12-17T18:57:10.718Z,61.14
2022-12-17T18:59:37.159Z,61.59
2022-12-17T19:02:03.756Z,61.99
2022-12-17T19:04:30.366Z,60.84
2022-12-17T19:06:56.815Z,61.06
2022-12-17T19:09:24.124Z,61.00
2022-12-17T19:11:50.671Z,60.20
2022-12-17T19:14:17.085Z,61.27
2022-12-17T19:16:44.995Z,61.17
2022-12-17T19:19:11.494Z,61.32
2022-12-17T19:21:38.270Z,61.65
2022-12-17T19:24:04.931Z,61.23
2022-12-17T19:26:31.347Z,61.51
2022-12-17T19:28:57.815Z,61.75
2022-12-17T19:31:24.285Z,61.98
2022-12-17T19:33:50.779Z,62.20
2022-12-17T19:36:17.189Z,62.16
2022-12-17T19:38:43.601Z,62.05
2022-12-17T19:41:10.105Z,61.71
2022-12-17T19:43:36.586Z,62.23
2022-12-17T19:46:17.300Z,62.42
2022-12-17T19:48:48.173Z,62.75
2022-12-17T19:51:15.283Z,62.78
2022-12-17T19:53:41.743Z,62.94
2022-12-17T19:58:52.810Z,62.15
2022-12-17T20:01:24.433Z,61.44
2022-12-17T20:03:51.014Z,60.97
2022-12-17T20:06:19.235Z,61.00
2022-12-17T20:08:45.668Z,60.81
2022-12-17T20:11:12.116Z,61.21
2022-12-17T20:13:38.482Z,61.56
2022-12-17T20:16:05.060Z,61.68
2022-12-17T20:18:31.574Z,61.65
2022-12-17T20:20:58.280Z,61.80
2022-12-17T20:23:34.223Z,61.80
2022-12-17T20:26:00.668Z,61.67
2022-12-17T20:28:27.126Z,62.23
2022-12-17T20:30:53.687Z,61.91
2022-12-17T20:33:24.279Z,62.55
2022-12-17T20:35:50.911Z,62.30
2022-12-17T20:38:17.348Z,62.52
2022-12-17T20:40:43.768Z,62.01
2022-12-17T20:43:10.195Z,62.41
2022-12-17T20:45:36.566Z,62.57
2022-12-17T20:48:02.974Z,62.97
2022-12-17T20:50:29.843Z,62.54
2022-12-17T20:52:56.333Z,62.27
2022-12-17T20:55:27.806Z,63.07
2022-12-17T20:57:57.364Z,62.41
2022-12-17T21:00:23.751Z,62.94
2022-12-17T21:02:50.970Z,63.15
2022-12-17T21:05:17.480Z,62.58
2022-12-17T21:07:43.893Z,62.67
2022-12-17T21:10:10.372Z,63.28
2022-12-17T21:12:36.813Z,63.12
2022-12-17T21:15:03.310Z,62.29
2022-12-17T21:17:29.769Z,62.20
2022-12-17T21:19:56.324Z,62.51
2022-12-17T21:22:23.560Z,62.80
2022-12-17T21:24:49.955Z,62.15
2022-12-17T21:27:16.387Z,61.99
2022-12-17T21:29:42.750Z,61.72
2022-12-17T21:32:09.232Z,62.24
2022-12-17T21:34:35.864Z,62.37
2022-12-17T21:37:02.279Z,62.31
2022-12-17T21:39:33.158Z,62.03
2022-12-17T21:41:59.600Z,62.02
2022-12-17T21:44:26.034Z,62.51
2022-12-17T21:46:52.455Z,62.77
2022-12-17T21:49:18.998Z,62.68
2022-12-17T21:51:45.899Z,62.85
2022-12-17T21:54:19.399Z,63.00
2022-12-17T21:56:46.524Z,62.70
2022-12-17T21:59:13.159Z,62.58
2022-12-17T22:01:39.642Z,62.78
2022-12-17T22:04:06.363Z,63.34
2022-12-17T22:06:34.080Z,63.39
2022-12-17T22:09:13.280Z,63.36
2022-12-17T22:11:53.649Z,63.07
2022-12-17T22:14:21.206Z,63.31
2022-12-17T22:16:47.949Z,62.95
2022-12-17T22:19:14.562Z,63.52
2022-12-17T22:21:41.866Z,63.45
2022-12-17T22:24:10.495Z,63.37
2022-12-17T22:26:39.926Z,63.29
2022-12-17T22:29:06.303Z,63.39
2022-12-17T22:31:32.879Z,63.33
2022-12-17T22:34:29.331Z,63.72
2022-12-17T22:39:48.275Z,63.67
2022-12-17T22:44:21.615Z,63.71
2022-12-17T22:44:49.751Z,63.98
2022-12-17T22:45:09.878Z,63.48
2022-12-17T22:47:37.316Z,63.36
2022-12-17T22:50:03.755Z,63.51
2022-12-17T22:52:32.861Z,64.05
2022-12-17T22:54:59.656Z,63.82
2022-12-17T22:57:36.775Z,63.91
2022-12-17T23:00:04.347Z,63.62
2022-12-17T23:02:31.550Z,63.35
2022-12-17T23:04:57.923Z,63.96
2022-12-17T23:07:28.413Z,63.76
2022-12-17T23:09:58.030Z,64.07
2022-12-17T23:12:24.413Z,64.16
2022-12-17T23:14:50.891Z,63.93
2022-12-17T23:17:17.258Z,64.10
2022-12-17T23:19:43.629Z,64.08
2022-12-17T23:22:10.059Z,63.95
2022-12-17T23:24:36.490Z,64.27
2022-12-17T23:27:05.836Z,64.43
2022-12-17T23:29:32.229Z,64.66
2022-12-17T23:31:58.634Z,64.75
2022-12-17T23:34:32.226Z,64.72
2022-12-17T23:36:58.605Z,64.77
2022-12-17T23:39:24.991Z,64.52
2022-12-17T23:41:51.359Z,64.55
2022-12-17T23:44:17.722Z,64.35
2022-12-17T23:46:44.320Z,64.43
2022-12-17T23:49:10.908Z,63.70
2022-12-17T23:51:37.281Z,63.73
2022-12-17T23:54:03.685Z,64.20
2022-12-17T23:56:30.045Z,64.51
2022-12-17T23:58:59.219Z,64.64
